Bowman Field
KLOU : now visible

Airfield :











YOU CAN JOIN US ON...

 
LOGIN :

Register | Disclaimer

   EN    FR    IT 

 









Legend :    VFR   Marginal VFR   IFR   Intensive IFR   Very Intensive IFR
Visi :
Ceiling :
>= 8 km
>= 3000ft
5 to 8 km
1000 to 3000 ft
1500m to 5 km
500 to 1000 ft
800 to 1500m
200 to 500 ft
< 800m
< 200 ft
Symbols :   Thunderstorms  Fog  Heavy snow  Heavy precipitations  Wind > 20 kt






- Airport Elevation : 546 ft


KLOU - Bowman Field

CURRENT METAR :
  • 101942Z 18008KT 10SM SCT025 BKN034 OVC085 18/15 A2949 RMK AO2 RAE34 P0007 T01780150

EXPIRED METARs :
  • 101913Z 16011KT 3SM -RA SCT012 BKN024 OVC033 18/15 A2952 RMK AO2 P0007 T01780150
  • 101900Z 17011KT 1 1/2SM RA BR FEW007 BKN028 OVC033 18/16 A2953 RMK AO2 P0003 T01780156
  • 101853Z 15008G21KT 1 1/2SM +RA BR BKN009 BKN022 OVC029 18/16 A2953 RMK AO2 SLP996 P0010 T01780156
  • 101753Z 14012KT 8SM -RA BKN009 BKN020 OVC029 18/15 A2957 RMK AO2 SLP009 P0011 60038 T01780150 10189 20167 58029
  • 101730Z 14010G20KT 3SM -RA BR BKN009 BKN018 OVC050 17/15 A2959 RMK AO2 P0010 T01720150
  • 101715Z 15011G19KT 2 1/2SM RA BR SCT010 BKN031 OVC039 17/15 A2959 RMK AO2 P0006 T01720150
  • 101653Z 14010G16KT 4SM -RA BR FEW013 SCT031 OVC040 17/15 A2960 RMK AO2 SLP021 P0013 T01720150

TAF N/A
KZID FIR / North America



MET'MAP, your aeronautical weather chart ! - Copyright ORBIFLY December 2007 - Disclaimer

ORBIFLY MET'MAP TEAM :

Programming & Development : Alexandra Zaïnal
Concept & original design : Baudouin d'Aumeries
Assistance for programming : Marc-Olivier Méhu
Technical & hardware support : Manuel Goepfert

Contact : metmap@orbifly.com




SOURCES & CREDITS :

   NOAA       Earth
Advisory